Time;durP1;ratioP1;P1;durP2;ratioP2;P2;SDS_P1;SDS_P2;PMS_P1;PMS_P2;Temp;Humidity;BMP_temperature;BMP_pressure;BME280_temperature;BME280_humidity;BME280_pressure;Samples;Min_cycle;Max_cycle;Signal;HPM_P1;HPM_P2
2022/11/05 00:09:33;;;;;;;24.90;14.02;;;;;;;9.75;100.00;100460.63;8357808;28;20036;-55
2022/11/05 00:17:14;;;;;;;24.00;14.23;;;;;;;9.62;100.00;100473.50;8365517;28;20523;-55
2022/11/05 00:25:35;;;;;;;27.80;13.55;;;;;;;9.33;100.00;100493.25;8358229;28;20033;-55
2022/11/05 00:29:35;;;;;;;26.05;13.13;;;;;;;9.24;100.00;100504.81;8357804;28;20072;-52
2022/11/05 00:33:39;;;;;;;27.50;14.38;;;;;;;9.33;100.00;100509.41;8357130;28;20118;-54
2022/11/05 00:37:39;;;;;;;32.03;15.48;;;;;;;9.43;100.00;100507.63;8363783;28;20071;-55
2022/11/05 00:41:40;;;;;;;34.28;16.48;;;;;;;9.43;100.00;100510.31;8363976;28;20040;-55
2022/11/05 00:45:41;;;;;;;33.97;15.82;;;;;;;9.42;100.00;100519.38;8367010;28;20374;-54
2022/11/05 00:49:41;;;;;;;32.03;15.93;;;;;;;9.37;100.00;100521.66;8366952;28;20033;-54
2022/11/05 00:53:42;;;;;;;32.65;17.85;;;;;;;9.34;100.00;100521.91;8364096;28;20094;-52
2022/11/05 00:57:42;;;;;;;36.08;18.05;;;;;;;9.30;100.00;100531.28;8363840;28;20049;-53
2022/11/05 01:01:43;;;;;;;35.90;18.88;;;;;;;9.25;100.00;100528.09;8364501;28;20068;-53
2022/11/05 01:05:46;;;;;;;35.13;19.23;;;;;;;9.22;100.00;100528.38;8363807;28;20525;-54
2022/11/05 01:09:47;;;;;;;36.95;19.58;;;;;;;9.25;100.00;100531.66;8363981;28;20029;-51
2022/11/05 01:13:47;;;;;;;34.53;18.65;;;;;;;9.18;100.00;100537.72;8363487;28;20391;-53
2022/11/05 01:17:50;;;;;;;36.83;17.92;;;;;;;9.09;100.00;100550.13;8363221;28;20276;-53
2022/11/05 01:21:50;;;;;;;34.40;17.85;;;;;;;9.08;100.00;100547.56;8351461;28;20127;-52
2022/11/05 01:25:51;;;;;;;36.05;18.25;;;;;;;9.07;100.00;100551.25;8363709;28;20037;-53
2022/11/05 01:29:51;;;;;;;30.58;17.92;;;;;;;8.97;100.00;100561.09;8363172;28;20463;-53
2022/11/05 01:33:52;;;;;;;30.30;16.98;;;;;;;8.93;100.00;100575.81;8359498;28;20656;-56
2022/11/05 01:37:52;;;;;;;35.75;17.67;;;;;;;8.86;100.00;100569.22;8362036;28;20462;-56
2022/11/05 01:41:53;;;;;;;31.02;17.17;;;;;;;8.84;100.00;100571.22;8362891;28;20041;-54
2022/11/05 01:45:57;;;;;;;30.88;16.50;;;;;;;8.74;100.00;100564.84;8363355;28;20047;-55
2022/11/05 01:50:02;;;;;;;30.92;16.63;;;;;;;8.64;100.00;100572.88;8363369;28;20037;-54
2022/11/05 01:54:07;;;;;;;33.75;17.80;;;;;;;8.59;100.00;100571.53;8361227;28;20045;-52
2022/11/05 01:58:13;;;;;;;36.83;18.73;;;;;;;8.61;100.00;100578.53;8359281;28;20132;-52
2022/11/05 02:02:15;;;;;;;36.40;18.48;;;;;;;8.55;100.00;100572.75;8334966;28;20037;-52
2022/11/05 02:06:17;;;;;;;31.35;16.02;;;;;;;8.56;100.00;100582.56;8363105;28;20036;-56
2022/11/05 02:10:18;;;;;;;32.97;17.10;;;;;;;8.47;100.00;100580.59;8362556;28;20059;-54
2022/11/05 02:14:19;;;;;;;34.00;17.60;;;;;;;8.36;100.00;100580.66;8360610;28;20032;-55
2022/11/05 02:18:33;;;;;;;36.35;18.98;;;;;;;8.53;100.00;100577.41;8359932;28;20052;-52
2022/11/05 02:23:13;;;;;;;34.38;17.38;;;;;;;8.36;100.00;100583.34;8361274;28;20045;-52
2022/11/05 02:27:45;;;;;;;34.97;17.35;;;;;;;7.85;100.00;100594.59;8361073;28;20070;-55
2022/11/05 02:32:00;;;;;;;32.55;16.20;;;;;;;7.78;100.00;100601.44;8361394;28;20043;-52
2022/11/05 02:36:23;;;;;;;33.63;19.60;;;;;;;7.71;100.00;100610.09;8360553;28;20521;-55
2022/11/05 02:41:03;;;;;;;33.78;18.83;;;;;;;7.55;100.00;100618.53;8360504;28;20048;-55
2022/11/05 02:45:24;;;;;;;32.72;18.05;;;;;;;7.38;100.00;100607.38;8389880;28;20148;-55
2022/11/05 02:49:39;;;;;;;33.83;18.20;;;;;;;7.18;100.00;100610.72;8394231;28;20497;-52
2022/11/05 02:53:50;;;;;;;37.65;17.98;;;;;;;7.17;100.00;100612.53;8393760;28;20033;-56
2022/11/05 02:57:51;;;;;;;37.00;18.75;;;;;;;7.17;100.00;100598.25;8387453;28;20037;-54
2022/11/05 03:01:52;;;;;;;31.70;17.67;;;;;;;6.96;100.00;100595.38;8365148;28;20064;-52
2022/11/05 03:06:22;;;;;;;33.45;16.48;;;;;;;7.07;100.00;100602.59;8360753;28;20040;-55
2022/11/05 03:14:47;;;;;;;33.33;14.18;;;;;;;7.50;100.00;100593.81;8362251;27;20502;-53
2022/11/05 03:18:59;;;;;;;28.05;14.40;;;;;;;7.62;100.00;100600.94;8353772;28;20029;-54
2022/11/05 03:23:40;;;;;;;28.25;14.63;;;;;;;7.58;100.00;100594.09;8354592;28;20040;-51
2022/11/05 03:27:46;;;;;;;25.95;14.27;;;;;;;7.39;100.00;100599.19;8345254;28;20037;-55
2022/11/05 03:31:48;;;;;;;27.55;13.68;;;;;;;7.43;100.00;100600.66;8353159;28;20099;-51
2022/11/05 03:35:54;;;;;;;27.63;14.00;;;;;;;7.63;100.00;100604.50;8352517;28;20128;-55
2022/11/05 03:39:59;;;;;;;26.25;13.55;;;;;;;7.70;100.00;100606.59;8352945;28;20518;-52
2022/11/05 03:44:04;;;;;;;29.98;15.32;;;;;;;7.62;100.00;100602.75;8365139;28;20079;-49
2022/11/05 03:48:09;;;;;;;28.90;13.50;;;;;;;7.51;100.00;100614.34;8385216;28;20041;-49
2022/11/05 03:52:13;;;;;;;;;;;;;;;7.55;100.00;100623.91;8357544;28;20053;-52
2022/11/05 03:56:24;;;;;;;29.38;14.50;;;;;;;7.31;100.00;100620.41;8351872;28;19965;-49
2022/11/05 04:00:24;;;;;;;28.60;15.05;;;;;;;7.34;100.00;100622.00;8350419;28;20052;-49
2022/11/05 04:04:25;;;;;;;27.98;15.15;;;;;;;7.25;100.00;100626.25;8352536;28;20048;-48
2022/11/05 04:13:46;;;;;;;28.70;14.98;;;;;;;6.70;100.00;100643.94;8332213;28;20044;-51
2022/11/05 04:17:08;;;;;;;28.17;15.63;;;;;;;6.61;100.00;100642.81;8339705;28;20134;-50
2022/11/05 04:25:31;;;;;;;30.63;15.32;;;;;;;6.62;100.00;100657.94;8333298;28;20037;-49
2022/11/05 04:30:32;;;;;;;30.30;16.23;;;;;;;6.60;100.00;100662.59;8329917;28;20064;-49
2022/11/05 04:33:52;;;;;;;38.42;17.33;;;;;;;6.59;100.00;100666.22;8328438;28;20095;-51
2022/11/05 04:37:52;;;;;;;33.78;17.60;;;;;;;6.67;100.00;100661.16;8329756;28;20054;-49
2022/11/05 04:41:53;;;;;;;36.00;17.67;;;;;;;6.71;100.00;100654.56;8328086;28;20050;-49
2022/11/05 04:45:54;;;;;;;43.00;19.52;;;;;;;6.74;100.00;100659.72;8329942;28;20045;-50
2022/11/05 04:49:54;;;;;;;35.03;17.27;;;;;;;6.59;100.00;100655.47;8329166;28;20041;-49
2022/11/05 04:53:55;;;;;;;41.05;20.80;;;;;;;6.56;100.00;100654.88;8327661;28;20091;-50
2022/11/05 04:57:56;;;;;;;42.03;19.83;;;;;;;6.56;100.00;100661.06;8321731;28;20486;-49
2022/11/05 05:01:56;;;;;;;37.72;17.95;;;;;;;6.30;100.00;100666.63;8298277;28;20034;-49
2022/11/05 05:05:58;;;;;;;36.88;19.90;;;;;;;6.31;100.00;100666.50;8328751;28;20067;-49
2022/11/05 05:10:01;;;;;;;36.88;18.30;;;;;;;6.19;100.00;100667.38;8328135;28;20421;-49
2022/11/05 05:14:02;;;;;;;41.22;20.05;;;;;;;6.35;100.00;100676.06;8299011;28;20414;-49
2022/11/05 05:18:02;;;;;;;36.97;19.17;;;;;;;6.25;100.00;100683.03;8294093;28;20064;-49
2022/11/05 05:22:03;;;;;;;37.65;18.52;;;;;;;6.18;100.00;100679.09;8327806;28;20072;-48
2022/11/05 05:26:03;;;;;;;41.53;20.02;;;;;;;6.35;100.00;100677.91;8327297;28;20164;-49
2022/11/05 05:30:05;;;;;;;44.45;21.05;;;;;;;6.39;100.00;100680.25;8327271;28;20025;-49
2022/11/05 05:34:07;;;;;;;38.95;19.40;;;;;;;6.37;100.00;100684.84;8325716;28;20112;-49
2022/11/05 05:38:07;;;;;;;32.47;18.10;;;;;;;6.13;100.00;100694.66;8327254;28;20041;-49
2022/11/05 05:42:08;;;;;;;34.28;17.88;;;;;;;5.75;100.00;100693.78;8327443;28;20041;-48
2022/11/05 05:46:12;;;;;;;42.15;18.65;;;;;;;5.93;100.00;100693.41;8327866;28;20041;-49
2022/11/05 05:50:13;;;;;;;40.72;18.38;;;;;;;6.11;100.00;100698.44;8326628;28;20449;-49
2022/11/05 05:54:14;;;;;;;33.58;17.38;;;;;;;5.61;100.00;100696.53;8326672;28;20069;-49
2022/11/05 05:58:14;;;;;;;29.08;15.55;;;;;;;5.47;100.00;100699.31;8322844;28;20449;-50
2022/11/05 06:02:15;;;;;;;31.80;16.30;;;;;;;5.65;100.00;100698.06;8323731;28;20037;-50
2022/11/05 06:06:20;;;;;;;33.88;16.45;;;;;;;5.44;100.00;100705.75;8326320;28;20040;-49
2022/11/05 06:10:21;;;;;;;31.38;14.93;;;;;;;5.37;100.00;100708.94;8324091;28;20371;-49
2022/11/05 06:14:21;;;;;;;31.17;15.68;;;;;;;5.35;100.00;100713.53;8295167;28;20033;-49
2022/11/05 06:18:22;;;;;;;35.90;18.52;;;;;;;5.52;100.00;100713.28;8292885;28;20490;-52
2022/11/05 06:22:23;;;;;;;43.78;19.70;;;;;;;5.66;100.00;100710.50;8294259;28;21398;-49
2022/11/05 06:26:24;;;;;;;38.05;18.65;;;;;;;5.57;100.00;100716.47;8294000;28;20042;-50
2022/11/05 06:30:24;;;;;;;35.78;17.30;;;;;;;5.47;100.00;100726.13;8314317;28;20037;-51
2022/11/05 06:34:25;;;;;;;34.97;18.33;;;;;;;5.18;100.00;100736.09;8323721;28;20071;-51
2022/11/05 06:38:25;;;;;;;37.40;17.60;;;;;;;5.28;100.00;100737.19;8332263;28;20506;-52
2022/11/05 06:42:26;;;;;;;32.92;16.67;;;;;;;5.35;100.00;100737.66;8315381;28;20139;-49
2022/11/05 06:46:27;;;;;;;42.17;18.40;;;;;;;5.50;100.00;100742.88;8321058;28;20057;-49
2022/11/05 06:50:28;;;;;;;45.88;18.98;;;;;;;5.68;100.00;100749.66;8315186;28;20047;-51
2022/11/05 06:54:28;;;;;;;30.38;15.55;;;;;;;5.21;100.00;100757.34;8300769;28;20058;-49
2022/11/05 06:58:29;;;;;;;39.13;15.95;;;;;;;5.20;100.00;100765.47;8284994;28;20503;-52
2022/11/05 07:02:30;;;;;;;28.35;16.05;;;;;;;5.55;100.00;100772.06;8308670;28;20045;-49
2022/11/05 07:06:31;;;;;;;27.40;13.88;;;;;;;5.26;100.00;100770.44;8326732;28;20075;-49
2022/11/05 07:10:32;;;;;;;32.03;15.02;;;;;;;5.42;100.00;100771.13;8323167;28;20065;-52
2022/11/05 07:14:32;;;;;;;42.95;17.95;;;;;;;5.73;100.00;100778.84;8304176;28;20037;-52
2022/11/05 07:18:33;;;;;;;34.95;16.70;;;;;;;5.99;100.00;100777.97;8315900;28;20169;-51
2022/11/05 07:22:34;;;;;;;33.25;15.90;;;;;;;6.19;100.00;100790.84;8351911;28;20052;-49
2022/11/05 07:26:35;;;;;;;32.13;15.40;;;;;;;6.36;100.00;100785.19;8355893;28;20044;-52
2022/11/05 07:30:35;;;;;;;27.80;14.48;;;;;;;6.45;100.00;100791.72;8326417;28;20040;-53
2022/11/05 07:34:36;;;;;;;31.80;15.57;;;;;;;6.72;100.00;100801.38;8321808;28;20037;-53
2022/11/05 07:38:36;;;;;;;30.45;14.35;;;;;;;6.95;100.00;100795.22;8322552;28;20433;-51
2022/11/05 07:42:43;;;;;;;27.23;14.25;;;;;;;6.97;100.00;100800.47;8322669;28;20060;-52
2022/11/05 07:46:44;;;;;;;28.58;14.18;;;;;;;7.11;100.00;100814.63;8307936;28;20045;-52
2022/11/05 07:50:44;;;;;;;34.47;14.20;;;;;;;7.29;100.00;100807.91;8321297;28;20046;-51
2022/11/05 07:54:45;;;;;;;42.08;17.83;;;;;;;7.56;100.00;100805.88;8321801;28;20042;-49
2022/11/05 07:58:46;;;;;;;30.75;13.60;;;;;;;7.79;100.00;100813.09;8308709;28;20033;-50
2022/11/05 08:03:10;;;;;;;29.40;14.18;;;;;;;8.14;100.00;100806.84;8317129;28;20041;-52
2022/11/05 08:07:11;;;;;;;38.05;13.25;;;;;;;8.23;100.00;100811.53;8306557;28;20033;-50
2022/11/05 08:11:11;;;;;;;33.28;13.23;;;;;;;8.20;100.00;100817.13;8319840;28;20053;-50
2022/11/05 08:15:12;;;;;;;25.48;12.65;;;;;;;8.69;100.00;100820.44;8308112;28;20037;-49
2022/11/05 08:19:12;;;;;;;19.90;10.85;;;;;;;9.13;100.00;100817.72;8296756;28;20033;-49
2022/11/05 08:23:13;;;;;;;22.80;11.32;;;;;;;9.43;100.00;100820.63;8310669;28;20041;-49
2022/11/05 08:27:14;;;;;;;24.67;11.55;;;;;;;9.53;100.00;100818.88;8311180;28;20121;-50
2022/11/05 08:31:16;;;;;;;27.05;11.68;;;;;;;9.83;100.00;100821.75;8326041;28;20701;-49
2022/11/05 08:35:18;;;;;;;24.63;12.00;;;;;;;9.93;100.00;100834.34;8312422;28;20041;-52
2022/11/05 08:39:19;;;;;;;19.13;11.00;;;;;;;10.46;100.00;100827.09;8303517;28;20045;-50
2022/11/05 08:43:20;;;;;;;56.65;12.82;;;;;;;12.31;91.87;100829.09;8312292;28;20033;-49
2022/11/05 08:47:20;;;;;;;26.33;10.82;;;;;;;14.42;81.99;100830.63;8312046;28;20517;-49
2022/11/05 08:51:21;;;;;;;14.48;7.72;;;;;;;15.29;77.38;100826.78;8312370;28;20037;-50
2022/11/05 08:55:22;;;;;;;13.05;7.32;;;;;;;16.08;73.06;100829.94;8325862;28;20072;-53
2022/11/05 08:59:22;;;;;;;15.77;6.82;;;;;;;17.07;69.26;100831.44;8321707;28;20068;-49
2022/11/05 09:03:23;;;;;;;9.13;6.18;;;;;;;17.56;67.29;100842.09;8325026;28;20164;-49
2022/11/05 09:07:23;;;;;;;11.50;5.75;;;;;;;17.60;66.54;100837.13;8324343;28;20067;-49
2022/11/05 09:11:25;;;;;;;11.20;5.25;;;;;;;17.76;64.98;100836.19;8306302;28;20050;-49
2022/11/05 09:15:25;;;;;;;10.95;4.68;;;;;;;17.91;64.13;100843.44;8321426;28;20099;-49
2022/11/05 09:19:26;;;;;;;10.85;4.35;;;;;;;18.40;63.92;100846.75;8294045;28;20105;-51
2022/11/05 09:23:26;;;;;;;7.43;4.40;;;;;;;18.13;63.79;100847.25;8290074;28;20112;-50
2022/11/05 09:27:27;;;;;;;8.85;4.20;;;;;;;18.44;63.26;100837.97;8310977;28;20033;-49
2022/11/05 09:31:27;;;;;;;7.78;4.30;;;;;;;18.99;62.23;100835.75;8304371;28;20033;-50
2022/11/05 09:35:28;;;;;;;10.10;4.25;;;;;;;19.02;61.77;100838.13;8310419;28;20049;-50
2022/11/05 09:39:29;;;;;;;8.27;3.28;;;;;;;19.55;59.82;100841.66;8305605;28;20053;-51
2022/11/05 09:43:50;;;;;;;8.80;2.50;;;;;;;19.32;58.97;100845.38;8319251;28;20041;-50
2022/11/05 09:47:55;;;;;;;9.07;3.05;;;;;;;19.90;58.52;100840.84;8283648;28;20038;-49
2022/11/05 09:51:57;;;;;;;7.10;2.50;;;;;;;20.27;57.84;100846.16;8283434;28;20502;-50
2022/11/05 09:55:59;;;;;;;10.13;3.60;;;;;;;20.07;57.76;100834.91;8305809;28;20034;-50
2022/11/05 10:00:04;;;;;;;7.22;2.55;;;;;;;20.12;57.36;100837.09;8293113;28;20038;-50
2022/11/05 10:04:22;;;;;;;4.93;2.35;;;;;;;20.62;56.75;100845.25;8336413;27;20762;-49
2022/11/05 10:08:26;;;;;;;;;;;;;;;20.55;56.10;100844.31;8334426;28;20507;-48
2022/11/05 10:12:35;;;;;;;3.47;1.83;;;;;;;20.51;56.29;100843.03;8345638;28;20114;-49
2022/11/05 10:16:40;;;;;;;6.65;1.73;;;;;;;20.31;55.96;100852.97;8347767;28;20045;-50
2022/11/05 10:20:42;;;;;;;4.57;1.08;;;;;;;20.06;55.98;100849.69;8345582;28;20050;-48
2022/11/05 10:24:46;;;;;;;1.90;1.00;;;;;;;20.10;55.98;100855.66;8347178;28;20049;-49
2022/11/05 10:28:48;;;;;;;5.18;1.45;;;;;;;19.84;56.46;100849.84;8347021;28;20336;-48
2022/11/05 10:32:54;;;;;;;3.92;1.17;;;;;;;19.17;57.97;100851.84;8345795;28;20460;-50
2022/11/05 10:36:55;;;;;;;4.95;2.00;;;;;;;17.89;59.77;100853.72;8344308;28;20141;-51
2022/11/05 10:41:28;;;;;;;3.75;1.50;;;;;;;18.09;59.43;100852.25;8337301;28;20033;-49
2022/11/05 10:45:45;;;;;;;5.30;1.42;;;;;;;18.48;59.29;100854.91;8371808;28;20446;-49
2022/11/05 10:49:58;;;;;;;7.50;1.65;;;;;;;18.55;58.80;100851.25;8303430;28;20069;-51
2022/11/05 10:54:04;;;;;;;4.85;1.30;;;;;;;18.91;58.36;100860.50;8331169;28;20033;-50
2022/11/05 11:02:29;;;;;;;7.03;1.70;;;;;;;18.77;58.84;100861.31;8344468;27;20398;-48
2022/11/05 11:06:33;;;;;;;3.75;1.92;;;;;;;19.34;58.04;100858.88;8341449;28;20064;-48
2022/11/05 11:10:41;;;;;;;8.15;1.98;;;;;;;19.07;58.43;100863.09;8338765;28;20041;-48
2022/11/05 11:14:42;;;;;;;2.97;1.20;;;;;;;20.33;55.80;100862.72;8343197;28;20575;-48
2022/11/05 11:18:43;;;;;;;4.80;1.30;;;;;;;18.52;57.89;100864.44;8346480;28;20457;-49
2022/11/05 11:23:10;;;;;;;9.50;1.85;;;;;;;16.63;63.47;100862.94;8346720;28;20056;-49
2022/11/05 11:27:29;;;;;;;7.40;2.10;;;;;;;15.40;67.27;100861.94;8344430;28;20037;-50
2022/11/05 11:31:31;;;;;;;8.15;1.65;;;;;;;15.05;69.21;100853.88;8346958;28;20066;-48
2022/11/05 11:35:35;;;;;;;4.18;1.50;;;;;;;14.63;69.74;100858.34;8342409;28;20126;-48
2022/11/05 11:39:37;;;;;;;9.75;2.05;;;;;;;14.38;72.03;100856.44;8378376;28;20037;-48
2022/11/05 11:43:40;;;;;;;15.35;2.38;;;;;;;14.21;72.94;100870.03;8340010;28;20037;-52
2022/11/05 11:47:44;;;;;;;19.63;2.83;;;;;;;14.31;74.39;100868.09;8346015;28;20120;-48
2022/11/05 11:51:45;;;;;;;11.55;2.38;;;;;;;14.29;74.35;100872.81;8340866;28;20156;-48
2022/11/05 11:56:14;;;;;;;9.15;2.05;;;;;;;14.24;74.06;100865.13;8353633;28;20091;-49
2022/11/05 12:00:17;;;;;;;5.30;2.03;;;;;;;14.15;74.10;100855.16;8339205;28;20041;-50
2022/11/05 12:04:57;;;;;;;9.35;2.15;;;;;;;14.04;74.81;100858.13;8328561;28;20041;-49
2022/11/05 12:09:19;;;;;;;11.50;2.80;;;;;;;14.03;74.97;100867.25;8326732;28;20041;-48
2022/11/05 12:17:59;;;;;;;12.25;3.15;;;;;;;13.81;76.29;100859.56;8404223;27;20385;-49
2022/11/05 12:22:16;;;;;;;3.05;1.38;;;;;;;13.69;74.37;100847.19;8411404;28;20040;-49
2022/11/05 12:26:44;;;;;;;2.83;1.52;;;;;;;13.83;74.14;100860.25;8387106;28;20438;-48
2022/11/05 12:30:56;;;;;;;4.50;1.45;;;;;;;13.75;74.11;100852.00;8380580;28;20175;-48
2022/11/05 12:39:56;;;;;;;3.25;1.30;;;;;;;13.82;74.49;100853.97;8414022;27;20865;-49
2022/11/05 12:44:36;;;;;;;4.70;1.30;;;;;;;14.14;73.46;100858.03;8413426;28;20032;-48
2022/11/05 12:49:04;;;;;;;3.75;1.25;;;;;;;14.18;75.23;100849.41;8377876;28;20071;-48
2022/11/05 12:57:31;;;;;;;6.50;1.80;;;;;;;14.28;75.66;100839.34;8348051;27;20368;-48
2022/11/05 13:01:44;;;;;;;4.30;1.92;;;;;;;14.22;74.62;100833.63;8323620;28;20387;-49
2022/11/05 13:05:50;;;;;;;5.57;1.50;;;;;;;14.17;75.54;100836.81;8331117;28;20371;-48
2022/11/05 13:09:58;;;;;;;6.50;1.60;;;;;;;14.14;74.75;100828.13;8326466;28;20072;-50
2022/11/05 13:14:20;;;;;;;4.35;1.90;;;;;;;13.91;74.34;100819.59;8343404;28;20063;-51
2022/11/05 13:18:28;;;;;;;4.32;1.48;;;;;;;13.79;73.54;100815.38;8326723;28;20042;-49
2022/11/05 13:22:49;;;;;;;4.78;1.48;;;;;;;13.72;73.83;100808.84;8345330;28;20052;-49
2022/11/05 13:32:09;;;;;;;4.88;1.67;;;;;;;13.79;74.15;100820.81;8306482;28;20393;-49
2022/11/05 13:40:38;;;;;;;3.92;1.80;;;;;;;13.53;74.17;100808.97;8396212;27;20361;-48
2022/11/05 13:45:02;;;;;;;6.53;2.22;;;;;;;13.60;73.97;100799.19;8381031;28;20044;-49
2022/11/05 13:49:29;;;;;;;8.27;2.85;;;;;;;13.57;73.43;100794.06;8417889;28;20489;-50
2022/11/05 13:58:13;;;;;;;10.27;2.75;;;;;;;13.61;73.11;100784.63;8311253;28;20413;-49
2022/11/05 14:02:19;;;;;;;5.00;2.03;;;;;;;13.55;73.44;100774.38;8267156;28;20577;-49
2022/11/05 14:06:26;;;;;;;2.90;1.20;;;;;;;13.46;74.30;100778.00;8275502;28;20056;-48
2022/11/05 14:10:36;;;;;;;5.43;2.00;;;;;;;13.43;75.56;100770.16;8273190;28;20442;-49
2022/11/05 14:14:45;;;;;;;7.45;2.70;;;;;;;13.41;76.39;100773.03;8264904;28;20042;-47
2022/11/05 14:19:12;;;;;;;7.15;2.88;;;;;;;13.24;76.99;100775.72;8292678;28;20045;-49
2022/11/05 14:23:37;;;;;;;7.95;2.25;;;;;;;13.12;78.31;100766.06;8266560;28;20061;-51
2022/11/05 14:27:42;;;;;;;7.32;2.92;;;;;;;13.08;79.70;100759.19;8264191;28;20038;-52
2022/11/05 14:40:41;;;;;;;8.13;2.75;;;;;;;12.99;80.77;100757.38;8294482;27;21800;-48
2022/11/05 14:45:19;;;;;;;5.70;2.67;;;;;;;12.94;81.39;100756.97;8305609;28;21593;-48
2022/11/05 14:49:25;;;;;;;3.95;2.00;;;;;;;12.93;81.08;100755.25;8354965;28;20041;-49
2022/11/05 14:53:33;;;;;;;4.50;1.60;;;;;;;12.90;79.18;100747.41;8376365;28;20039;-50
2022/11/05 15:01:57;;;;;;;3.88;1.33;;;;;;;12.97;76.93;100756.66;8391630;27;20861;-49
2022/11/05 15:10:36;;;;;;;6.30;1.60;;;;;;;12.81;77.43;100770.03;8357094;27;20850;-51
2022/11/05 15:14:46;;;;;;;5.00;1.50;;;;;;;12.81;76.78;100761.88;8345696;28;20321;-48
2022/11/05 15:18:47;;;;;;;5.10;1.33;;;;;;;12.81;75.90;100770.03;8359556;28;20469;-49
2022/11/05 15:22:57;;;;;;;6.07;1.30;;;;;;;12.71;76.30;100766.47;8344345;28;20064;-49
2022/11/05 15:27:07;;;;;;;4.93;1.10;;;;;;;12.67;76.47;100781.34;8346443;28;20043;-49
2022/11/05 15:35:28;;;;;;;2.05;0.95;;;;;;;12.60;77.05;100786.47;8294425;28;20393;-51
2022/11/05 15:39:40;;;;;;;5.05;1.77;;;;;;;12.46;78.30;100780.69;8313919;28;20038;-51
2022/11/05 15:43:44;;;;;;;2.45;1.10;;;;;;;12.51;77.01;100764.84;8311510;28;20038;-48
2022/11/05 15:47:45;;;;;;;4.25;1.20;;;;;;;12.44;77.50;100774.56;8302146;28;20061;-49
2022/11/05 15:51:46;;;;;;;8.27;1.55;;;;;;;12.41;77.50;100774.84;8312753;28;20361;-50
2022/11/05 15:55:51;;;;;;;6.90;1.48;;;;;;;12.34;77.80;100773.72;8305665;28;20038;-49
2022/11/05 15:59:52;;;;;;;8.05;1.75;;;;;;;12.20;78.63;100772.28;8300450;28;20053;-50
2022/11/05 16:03:57;;;;;;;6.28;2.08;;;;;;;12.10;79.12;100781.47;8290492;28;20050;-53
2022/11/05 16:07:58;;;;;;;;;;;;;;;11.96;80.23;100773.75;8311402;28;20037;-49
2022/11/05 16:12:23;;;;;;;3.60;1.58;;;;;;;11.86;80.98;100773.75;8311509;28;19935;-49
2022/11/05 16:16:32;;;;;;;4.38;1.73;;;;;;;11.76;81.67;100778.31;8311469;28;20045;-49
2022/11/05 16:20:35;;;;;;;7.40;1.77;;;;;;;11.73;81.93;100782.19;8313005;28;20172;-52
2022/11/05 16:24:35;;;;;;;5.05;1.95;;;;;;;11.71;82.25;100781.44;8320620;28;20052;-48
2022/11/05 16:28:36;;;;;;;5.95;1.98;;;;;;;11.69;82.93;100777.19;8282354;28;20252;-49
2022/11/05 16:32:36;;;;;;;5.15;1.83;;;;;;;11.73;82.80;100771.34;8295233;28;20070;-50
2022/11/05 16:36:37;;;;;;;12.70;2.13;;;;;;;11.71;82.80;100781.44;8282322;28;20073;-49
2022/11/05 16:40:38;;;;;;;6.90;2.33;;;;;;;11.67;83.36;100790.88;8276753;28;20042;-51
2022/11/05 16:44:38;;;;;;;15.02;2.80;;;;;;;11.59;84.36;100787.13;8272226;28;20605;-48
2022/11/05 16:48:39;;;;;;;11.60;2.35;;;;;;;11.47;85.59;100783.66;8255684;28;20037;-50
2022/11/05 16:52:39;;;;;;;5.18;2.70;;;;;;;11.43;85.98;100782.25;8273174;28;20042;-51
2022/11/05 16:56:41;;;;;;;6.53;2.72;;;;;;;11.49;87.58;100792.50;8290143;28;20128;-50
2022/11/05 17:00:42;;;;;;;5.38;2.38;;;;;;;11.47;86.34;100791.78;8287652;28;20038;-50
2022/11/05 17:04:42;;;;;;;3.67;2.33;;;;;;;11.36;87.23;100791.91;8277128;28;20033;-52
2022/11/05 17:08:44;;;;;;;6.80;3.08;;;;;;;11.29;87.65;100801.56;8269008;28;20080;-49
2022/11/05 17:12:45;;;;;;;6.90;2.75;;;;;;;11.28;88.13;100799.88;8284267;28;20049;-48
2022/11/05 17:16:45;;;;;;;7.63;2.90;;;;;;;11.16;89.11;100798.25;8288359;28;20574;-48
2022/11/05 17:20:49;;;;;;;6.70;2.63;;;;;;;11.09;89.25;100789.00;8287068;28;20406;-49
2022/11/05 17:24:50;;;;;;;9.30;2.97;;;;;;;11.05;89.39;100792.97;8285715;28;20034;-49
2022/11/05 17:28:50;;;;;;;9.25;3.13;;;;;;;11.03;89.81;100783.25;8282180;28;20045;-49
2022/11/05 17:32:51;;;;;;;6.18;3.00;;;;;;;11.03;89.72;100792.25;8282784;28;20041;-48
2022/11/05 17:36:51;;;;;;;6.45;3.10;;;;;;;11.07;89.61;100790.13;8286589;28;20495;-49
2022/11/05 17:40:52;;;;;;;6.93;2.65;;;;;;;11.08;89.04;100795.41;8285222;28;20041;-49
2022/11/05 17:44:53;;;;;;;8.13;3.53;;;;;;;10.99;89.68;100801.63;8287457;28;20628;-49
2022/11/05 17:48:54;;;;;;;15.27;4.35;;;;;;;10.99;90.06;100807.03;8281375;28;20091;-50
2022/11/05 17:52:55;;;;;;;7.38;3.92;;;;;;;10.94;90.45;100806.59;8280318;28;20045;-49
2022/11/05 17:56:55;;;;;;;12.02;4.43;;;;;;;11.04;90.27;100807.47;8283088;28;20046;-50
2022/11/05 18:00:57;;;;;;;12.52;4.88;;;;;;;11.02;90.25;100809.47;8284366;28;20052;-49
2022/11/05 18:04:58;;;;;;;10.02;4.20;;;;;;;10.99;90.78;100809.75;8286836;28;20034;-49
2022/11/05 18:08:59;;;;;;;13.60;5.03;;;;;;;10.85;91.95;100807.41;8281333;28;20125;-49
2022/11/05 18:12:59;;;;;;;10.63;5.00;;;;;;;10.73;93.07;100808.47;8285201;28;20350;-49
2022/11/05 18:17:00;;;;;;;7.80;4.38;;;;;;;10.56;94.34;100801.00;8286246;28;20417;-50
2022/11/05 18:21:01;;;;;;;7.25;4.82;;;;;;;10.62;93.83;100799.59;8286893;28;20046;-48
2022/11/05 18:25:01;;;;;;;8.70;5.47;;;;;;;10.56;94.71;100803.69;8274233;28;20145;-49
2022/11/05 18:29:04;;;;;;;12.57;6.55;;;;;;;10.49;95.52;100801.66;8276822;28;20041;-48
2022/11/05 18:33:05;;;;;;;12.15;5.55;;;;;;;10.53;95.69;100814.78;8282526;28;20052;-50
2022/11/05 18:37:06;;;;;;;14.27;8.07;;;;;;;10.59;95.57;100803.44;8277104;28;20030;-50
2022/11/05 18:41:06;;;;;;;14.48;7.78;;;;;;;10.61;95.79;100814.94;8286710;28;20034;-49
2022/11/05 18:45:08;;;;;;;11.63;7.53;;;;;;;10.62;95.08;100805.88;8273622;28;20479;-49
2022/11/05 18:49:11;;;;;;;16.30;7.63;;;;;;;10.64;94.95;100803.03;8277930;28;20054;-49
2022/11/05 18:53:12;;;;;;;18.92;9.32;;;;;;;10.59;95.04;100783.63;8283642;28;20034;-49
2022/11/05 18:57:12;;;;;;;18.75;9.48;;;;;;;10.68;94.77;100790.94;8279987;28;20072;-49
2022/11/05 19:01:17;;;;;;;11.25;4.97;;;;;;;10.68;94.36;100781.00;8280734;28;20077;-49
2022/11/05 19:05:18;;;;;;;11.93;4.60;;;;;;;10.74;94.23;100783.13;8282353;28;20104;-49
2022/11/05 19:09:19;;;;;;;7.88;5.35;;;;;;;10.80;93.58;100788.00;8278955;28;20112;-49
2022/11/05 19:13:19;;;;;;;12.50;6.32;;;;;;;10.78;93.51;100781.88;8284644;28;20533;-49
2022/11/05 19:17:20;;;;;;;10.77;5.40;;;;;;;10.80;93.33;100782.59;8284924;28;20065;-50
2022/11/05 19:21:24;;;;;;;8.85;5.22;;;;;;;10.82;93.28;100786.03;8286748;28;20038;-48
2022/11/05 19:25:24;;;;;;;11.20;5.82;;;;;;;10.82;92.84;100796.84;8276032;28;20041;-52
2022/11/05 19:29:25;;;;;;;12.40;6.30;;;;;;;10.84;93.87;100794.88;8286300;28;20042;-50
2022/11/05 19:33:26;;;;;;;9.10;5.93;;;;;;;10.87;92.76;100794.59;8273549;28;20249;-49
2022/11/05 19:37:26;;;;;;;8.20;5.15;;;;;;;10.82;92.66;100791.44;8285787;28;20042;-50
2022/11/05 19:41:27;;;;;;;10.18;4.57;;;;;;;10.85;92.63;100796.56;8277977;28;20037;-51
2022/11/05 19:45:28;;;;;;;12.10;5.80;;;;;;;10.93;92.17;100794.06;8279285;28;20502;-50
2022/11/05 19:49:28;;;;;;;13.52;5.28;;;;;;;10.97;91.50;100800.91;8279095;28;20045;-50
2022/11/05 19:53:29;;;;;;;6.85;4.22;;;;;;;11.00;91.26;100794.34;8285367;28;20038;-50
2022/11/05 19:57:29;;;;;;;14.43;5.20;;;;;;;11.00;91.07;100795.22;8284722;28;20049;-49
2022/11/05 20:01:31;;;;;;;11.07;4.63;;;;;;;10.99;91.17;100793.50;8286258;28;20038;-49
2022/11/05 20:05:32;;;;;;;9.80;4.28;;;;;;;10.98;90.96;100790.94;8286407;28;20044;-51
2022/11/05 20:09:33;;;;;;;6.30;4.25;;;;;;;10.99;90.05;100788.09;8286719;28;20034;-50